createdAt,value
2023-04-03T00:02:45.267Z,1011.56
2023-04-03T00:08:29.666Z,1011.57
2023-04-03T00:14:13.666Z,1011.58
2023-04-03T00:19:57.789Z,1011.53
2023-04-03T00:25:41.923Z,1011.49
2023-04-03T00:31:26.054Z,1011.39
2023-04-03T00:37:10.392Z,1011.37
2023-04-03T00:42:57.531Z,1011.37
2023-04-03T00:48:42.826Z,1011.44
2023-04-03T00:54:27.314Z,1011.5
2023-04-03T01:00:12.851Z,1011.47
2023-04-03T01:05:56.959Z,1011.48
2023-04-03T01:11:40.971Z,1011.45
2023-04-03T01:17:33.611Z,1011.46
2023-04-03T01:23:23.958Z,1011.47
2023-04-03T01:29:08.935Z,1011.53
2023-04-03T01:34:52.964Z,1011.56
2023-04-03T01:40:37.356Z,1011.59
2023-04-03T01:46:22.418Z,1011.63
2023-04-03T01:52:06.495Z,1011.65
2023-04-03T01:57:50.533Z,1011.68
2023-04-03T02:03:34.609Z,1011.69
2023-04-03T02:09:18.940Z,1011.73
2023-04-03T02:15:02.931Z,1011.79
2023-04-03T02:20:48.234Z,1011.83
2023-04-03T02:26:32.309Z,1011.82
2023-04-03T02:32:16.241Z,1011.89
2023-04-03T02:38:00.135Z,1011.85
2023-04-03T02:43:44.145Z,1011.87
2023-04-03T02:49:28.173Z,1011.79
2023-04-03T02:55:15.471Z,1011.88
2023-04-03T03:00:59.638Z,1011.91
2023-04-03T03:06:45.799Z,1011.92
2023-04-03T03:12:30.557Z,1011.86
2023-04-03T03:18:16.506Z,1011.86
2023-04-03T03:24:00.446Z,1011.86
2023-04-03T03:29:44.450Z,1011.95
2023-04-03T03:35:29.074Z,1011.92
2023-04-03T03:41:14.111Z,1012.02
2023-04-03T03:46:58.974Z,1012.04
2023-04-03T03:52:44.340Z,1012.1
2023-04-03T03:58:29.150Z,1012.07
2023-04-03T04:04:13.972Z,1012.03
2023-04-03T04:09:59.013Z,1012.03
2023-04-03T04:15:44.141Z,1012.04
2023-04-03T04:21:28.953Z,1012.01
2023-04-03T04:27:14.098Z,1012.02
2023-04-03T04:32:59.043Z,1012.1
2023-04-03T04:38:44.393Z,1012.11
2023-04-03T04:44:29.321Z,1012.11
2023-04-03T04:50:15.023Z,1012.15
2023-04-03T04:55:59.903Z,1012.19
2023-04-03T05:01:44.376Z,1012.23
2023-04-03T05:07:28.459Z,1012.26
2023-04-03T05:13:12.333Z,1012.3
2023-04-03T05:18:56.290Z,1012.25
2023-04-03T05:24:40.308Z,1012.28
2023-04-03T05:30:24.506Z,1012.29
2023-04-03T05:36:09.642Z,1012.34
2023-04-03T05:41:54.446Z,1012.44
2023-04-03T05:47:38.637Z,1012.47
2023-04-03T05:53:24.125Z,1012.49
2023-04-03T05:59:08.263Z,1012.5
2023-04-03T06:04:53.074Z,1012.63
2023-04-03T06:10:38.022Z,1012.64
2023-04-03T06:16:27.862Z,1012.64
2023-04-03T06:22:11.941Z,1012.61
2023-04-03T06:27:55.960Z,1012.64
2023-04-03T06:33:39.853Z,1012.71
2023-04-03T06:39:24.944Z,1012.67
2023-04-03T06:45:09.788Z,1012.63
2023-04-03T06:50:54.886Z,1012.63
2023-04-03T06:56:38.953Z,1012.63
2023-04-03T07:02:23.308Z,1012.73
2023-04-03T07:08:07.379Z,1012.85
2023-04-03T07:13:51.345Z,1012.89
2023-04-03T07:19:35.339Z,1012.9
2023-04-03T07:25:19.571Z,1012.96
2023-04-03T07:31:05.959Z,1012.99
2023-04-03T07:36:50.102Z,1012.95
2023-04-03T07:42:34.140Z,1012.97
2023-04-03T07:48:18.564Z,1013.01
2023-04-03T07:54:02.686Z,1013.04
2023-04-03T07:59:47.060Z,1013.1
2023-04-03T08:05:31.252Z,1013.11
2023-04-03T08:11:15.535Z,1013.13
2023-04-03T08:17:02.749Z,1013.06
2023-04-03T08:22:50.421Z,1013.07
2023-04-03T08:28:34.561Z,1013.07
2023-04-03T08:34:18.890Z,1013.05
2023-04-03T08:40:03.125Z,1013.09
2023-04-03T08:45:50.448Z,1013.1
2023-04-03T08:51:34.658Z,1013.03
2023-04-03T08:57:19.994Z,1013.12
2023-04-03T09:03:04.054Z,1013.18
2023-04-03T09:08:51.948Z,1013.18
2023-04-03T09:14:39.350Z,1013.1
2023-04-03T09:20:26.466Z,1013.09
2023-04-03T09:26:15.417Z,1013.04
2023-04-03T09:32:01.665Z,1013.03
2023-04-03T09:37:46.450Z,1012.95
2023-04-03T09:43:32.094Z,1012.84
2023-04-03T09:49:16.068Z,1012.75
2023-04-03T09:55:05.014Z,1012.72
2023-04-03T10:00:54.033Z,1012.79
2023-04-03T10:06:39.060Z,1012.75
2023-04-03T10:12:24.057Z,1012.58
2023-04-03T10:18:24.172Z,1012.58
2023-04-03T10:24:12.233Z,1012.59
2023-04-03T10:30:01.364Z,1012.47
2023-04-03T10:35:52.371Z,1012.38
2023-04-03T10:41:42.469Z,1012.31
2023-04-03T10:47:27.686Z,1012.32
2023-04-03T10:53:19.234Z,1012.28
2023-04-03T10:59:07.832Z,1012.32
2023-04-03T11:04:53.565Z,1012.33
2023-04-03T11:10:39.824Z,1012.24
2023-04-03T11:16:26.406Z,1012.19
2023-04-03T11:22:18.132Z,1012.1
2023-04-03T11:28:04.348Z,1012.08
2023-04-03T11:33:53.568Z,1012
2023-04-03T11:39:39.653Z,1011.93
2023-04-03T11:45:39.698Z,1011.87
2023-04-03T11:51:36.063Z,1011.87
2023-04-03T11:57:39.870Z,1011.72
2023-04-03T12:03:44.848Z,1011.71
2023-04-03T12:09:30.334Z,1011.66
2023-04-03T12:15:28.907Z,1011.63
2023-04-03T12:21:13.314Z,1011.63
2023-04-03T12:27:02.250Z,1011.47
2023-04-03T12:33:12.931Z,1011.34
2023-04-03T12:39:03.320Z,1011.38
2023-04-03T12:44:54.871Z,1011.37
2023-04-03T12:50:38.941Z,1011.31
2023-04-03T12:56:27.835Z,1011.4
2023-04-03T13:02:22.555Z,1011.3
2023-04-03T13:08:07.669Z,1011.31
2023-04-03T13:14:00.702Z,1011.17
2023-04-03T13:19:44.803Z,1011.19
2023-04-03T13:25:31.751Z,1011.08
2023-04-03T13:31:22.255Z,1011.06
2023-04-03T13:37:06.685Z,1011.1
2023-04-03T13:42:55.614Z,1011.07
2023-04-03T13:48:43.820Z,1011.07
2023-04-03T13:54:31.352Z,1011.03
2023-04-03T14:00:38.501Z,1011.04
2023-04-03T14:06:22.454Z,1010.99
2023-04-03T14:12:11.305Z,1010.88
2023-04-03T14:18:09.300Z,1010.85
2023-04-03T14:23:53.252Z,1010.68
2023-04-03T14:29:37.493Z,1010.62
2023-04-03T14:35:21.756Z,1010.61
2023-04-03T14:41:16.384Z,1010.52
2023-04-03T14:47:01.366Z,1010.6
2023-04-03T14:52:46.215Z,1010.51
2023-04-03T14:58:30.259Z,1010.51
2023-04-03T15:04:17.903Z,1010.56
2023-04-03T15:10:03.753Z,1010.49
2023-04-03T15:15:48.030Z,1010.39
2023-04-03T15:21:32.116Z,1010.32
2023-04-03T15:27:17.033Z,1010.3
2023-04-03T15:33:01.050Z,1010.32
2023-04-03T15:38:45.113Z,1010.38
2023-04-03T15:44:29.201Z,1010.35
2023-04-03T15:50:13.702Z,1010.41
2023-04-03T15:55:57.907Z,1010.43
2023-04-03T16:01:42.012Z,1010.43
2023-04-03T16:07:27.520Z,1010.42
2023-04-03T16:13:11.650Z,1010.24
2023-04-03T16:18:56.069Z,1010.28
2023-04-03T16:24:40.469Z,1010.31
2023-04-03T16:30:24.673Z,1010.36
2023-04-03T16:36:08.932Z,1010.36
2023-04-03T16:41:52.823Z,1010.34
2023-04-03T16:47:37.119Z,1010.22
2023-04-03T16:53:21.366Z,1010.29
2023-04-03T16:59:05.442Z,1010.32
2023-04-03T17:04:51.935Z,1010.36
2023-04-03T17:10:35.901Z,1010.4
2023-04-03T17:16:19.976Z,1010.59
2023-04-03T17:22:04.016Z,1010.78
2023-04-03T17:27:48.238Z,1010.57
2023-04-03T17:33:32.297Z,1010.43
2023-04-03T17:39:17.453Z,1010.56
2023-04-03T17:45:01.605Z,1010.6
2023-04-03T17:50:45.619Z,1010.56
2023-04-03T17:56:29.578Z,1010.61
2023-04-03T18:02:13.643Z,1010.61
2023-04-03T18:07:59.247Z,1010.57
2023-04-03T18:13:43.551Z,1010.55
2023-04-03T18:19:30.264Z,1010.63
2023-04-03T18:25:15.487Z,1010.61
2023-04-03T18:31:00.051Z,1010.57
2023-04-03T18:36:44.118Z,1010.57
2023-04-03T18:42:28.923Z,1010.66
2023-04-03T18:48:13.622Z,1010.66
2023-04-03T18:53:57.745Z,1010.67
2023-04-03T18:59:41.793Z,1010.74
2023-04-03T19:05:26.134Z,1010.75
2023-04-03T19:11:10.175Z,1010.76
2023-04-03T19:16:54.525Z,1010.81
2023-04-03T19:22:39.067Z,1010.89
2023-04-03T19:28:23.050Z,1010.86
2023-04-03T19:34:07.643Z,1010.92
2023-04-03T19:39:51.650Z,1010.92
2023-04-03T19:45:35.756Z,1011
2023-04-03T19:51:19.601Z,1011.02
2023-04-03T19:57:03.695Z,1011.1
2023-04-03T20:02:47.878Z,1011.1
2023-04-03T20:08:31.957Z,1011.12
2023-04-03T20:14:16.035Z,1011.19
2023-04-03T20:20:00.333Z,1011.21
2023-04-03T20:26:01.829Z,1011.16
2023-04-03T20:31:50.852Z,1011.24
2023-04-03T20:37:35.190Z,1011.19
2023-04-03T20:43:19.021Z,1011.15
2023-04-03T20:49:03.848Z,1011.19
2023-04-03T20:54:47.979Z,1011.17
2023-04-03T21:00:32.344Z,1011.21
2023-04-03T21:06:27.610Z,1011.2
2023-04-03T21:12:22.780Z,1011.27
2023-04-03T21:18:22.504Z,1011.21
2023-04-03T21:24:08.296Z,1011.16
2023-04-03T21:29:52.245Z,1011.16
2023-04-03T21:35:36.394Z,1011.14
2023-04-03T21:41:20.306Z,1011.12
2023-04-03T21:47:04.181Z,1011.12
2023-04-03T21:52:48.209Z,1011.18
2023-04-03T21:58:33.461Z,1011.12
2023-04-03T22:04:17.617Z,1011.1
2023-04-03T22:10:01.620Z,1011.12
2023-04-03T22:15:47.723Z,1011.2
2023-04-03T22:21:31.885Z,1011.15
2023-04-03T22:27:16.018Z,1011.18
2023-04-03T22:33:00.095Z,1011.25
2023-04-03T22:38:44.282Z,1011.3
2023-04-03T22:44:36.425Z,1011.45
2023-04-03T22:50:20.778Z,1011.43
2023-04-03T22:56:05.720Z,1011.32
2023-04-03T23:01:49.624Z,1011.27
2023-04-03T23:07:33.601Z,1011.11
2023-04-03T23:13:17.754Z,1010.98
2023-04-03T23:19:02.666Z,1010.84
2023-04-03T23:24:51.740Z,1010.79
2023-04-03T23:30:35.797Z,1010.88
2023-04-03T23:36:20.170Z,1010.93
2023-04-03T23:42:04.258Z,1010.96
2023-04-03T23:47:48.366Z,1011.07
2023-04-03T23:53:34.390Z,1011.1
2023-04-03T23:59:18.515Z,1011.19
